sensor_id;sensor_type;location;lat;lon;timestamp;temperature;humidity
32626;DHT22;19038;50.922;11.880;2022-09-16T00:04:53;16.10;73.30
32626;DHT22;19038;50.922;11.880;2022-09-16T00:09:53;16.10;73.40
32626;DHT22;19038;50.922;11.880;2022-09-16T00:14:53;16.10;73.20
32626;DHT22;19038;50.922;11.880;2022-09-16T00:19:53;16.00;74.00
32626;DHT22;19038;50.922;11.880;2022-09-16T00:24:53;16.00;74.00
32626;DHT22;19038;50.922;11.880;2022-09-16T00:29:53;16.10;74.20
32626;DHT22;19038;50.922;11.880;2022-09-16T00:34:53;16.10;73.80
32626;DHT22;19038;50.922;11.880;2022-09-16T00:39:53;16.10;74.20
32626;DHT22;19038;50.922;11.880;2022-09-16T00:44:55;16.10;74.00
32626;DHT22;19038;50.922;11.880;2022-09-16T00:49:54;16.00;74.20
32626;DHT22;19038;50.922;11.880;2022-09-16T00:54:53;16.00;74.00
32626;DHT22;19038;50.922;11.880;2022-09-16T00:59:53;16.00;73.90
32626;DHT22;19038;50.922;11.880;2022-09-16T01:04:55;15.90;73.60
32626;DHT22;19038;50.922;11.880;2022-09-16T01:09:53;15.90;74.00
32626;DHT22;19038;50.922;11.880;2022-09-16T01:14:53;15.90;73.50
32626;DHT22;19038;50.922;11.880;2022-09-16T01:24:58;15.80;73.50
32626;DHT22;19038;50.922;11.880;2022-09-16T01:30:02;15.80;74.00
32626;DHT22;19038;50.922;11.880;2022-09-16T01:34:57;15.70;73.10
32626;DHT22;19038;50.922;11.880;2022-09-16T01:40:03;15.70;73.70
32626;DHT22;19038;50.922;11.880;2022-09-16T01:44:59;15.60;73.10
32626;DHT22;19038;50.922;11.880;2022-09-16T01:49:58;15.60;72.90
32626;DHT22;19038;50.922;11.880;2022-09-16T02:04:54;15.60;73.50
32626;DHT22;19038;50.922;11.880;2022-09-16T02:09:54;15.60;73.60
32626;DHT22;19038;50.922;11.880;2022-09-16T02:14:53;15.50;73.30
32626;DHT22;19038;50.922;11.880;2022-09-16T02:19:55;15.50;73.70
32626;DHT22;19038;50.922;11.880;2022-09-16T02:24:53;15.60;73.90
32626;DHT22;19038;50.922;11.880;2022-09-16T02:29:55;15.60;73.80
32626;DHT22;19038;50.922;11.880;2022-09-16T02:34:53;15.50;73.80
32626;DHT22;19038;50.922;11.880;2022-09-16T02:39:53;15.50;74.30
32626;DHT22;19038;50.922;11.880;2022-09-16T02:44:53;15.50;73.90
32626;DHT22;19038;50.922;11.880;2022-09-16T02:49:55;15.50;73.80
32626;DHT22;19038;50.922;11.880;2022-09-16T02:55:26;15.40;73.90
32626;DHT22;19038;50.922;11.880;2022-09-16T02:59:53;15.40;74.50
32626;DHT22;19038;50.922;11.880;2022-09-16T03:04:53;15.40;74.20
32626;DHT22;19038;50.922;11.880;2022-09-16T03:09:53;15.30;74.50
32626;DHT22;19038;50.922;11.880;2022-09-16T03:14:58;15.30;74.80
32626;DHT22;19038;50.922;11.880;2022-09-16T03:24:57;15.20;74.30
32626;DHT22;19038;50.922;11.880;2022-09-16T03:29:54;15.20;74.40
32626;DHT22;19038;50.922;11.880;2022-09-16T03:34:54;15.10;74.50
32626;DHT22;19038;50.922;11.880;2022-09-16T03:39:55;15.10;75.20
32626;DHT22;19038;50.922;11.880;2022-09-16T03:44:53;15.10;75.20
32626;DHT22;19038;50.922;11.880;2022-09-16T03:49:53;15.10;75.30
32626;DHT22;19038;50.922;11.880;2022-09-16T03:54:53;15.10;75.30
32626;DHT22;19038;50.922;11.880;2022-09-16T03:59:53;15.10;75.20
32626;DHT22;19038;50.922;11.880;2022-09-16T04:04:59;15.10;74.70
32626;DHT22;19038;50.922;11.880;2022-09-16T04:09:53;15.00;74.70
32626;DHT22;19038;50.922;11.880;2022-09-16T04:14:53;15.00;74.60
32626;DHT22;19038;50.922;11.880;2022-09-16T04:19:53;15.00;74.40
32626;DHT22;19038;50.922;11.880;2022-09-16T04:24:53;14.80;74.10
32626;DHT22;19038;50.922;11.880;2022-09-16T04:29:53;14.80;74.40
32626;DHT22;19038;50.922;11.880;2022-09-16T04:34:53;14.90;74.40
32626;DHT22;19038;50.922;11.880;2022-09-16T04:39:53;14.90;74.70
32626;DHT22;19038;50.922;11.880;2022-09-16T04:44:53;14.90;75.30
32626;DHT22;19038;50.922;11.880;2022-09-16T04:49:53;14.80;74.10
32626;DHT22;19038;50.922;11.880;2022-09-16T04:54:53;14.80;73.90
32626;DHT22;19038;50.922;11.880;2022-09-16T04:59:53;14.70;74.40
32626;DHT22;19038;50.922;11.880;2022-09-16T05:04:53;14.70;74.80
32626;DHT22;19038;50.922;11.880;2022-09-16T05:09:53;14.80;74.70
32626;DHT22;19038;50.922;11.880;2022-09-16T05:14:53;14.80;74.80
32626;DHT22;19038;50.922;11.880;2022-09-16T05:19:53;14.80;74.90
32626;DHT22;19038;50.922;11.880;2022-09-16T05:24:53;14.80;74.60
32626;DHT22;19038;50.922;11.880;2022-09-16T05:29:53;14.90;75.00
32626;DHT22;19038;50.922;11.880;2022-09-16T05:34:53;14.90;75.10
32626;DHT22;19038;50.922;11.880;2022-09-16T05:39:53;14.90;75.20
32626;DHT22;19038;50.922;11.880;2022-09-16T05:44:53;14.90;75.30
32626;DHT22;19038;50.922;11.880;2022-09-16T05:49:53;14.90;75.40
32626;DHT22;19038;50.922;11.880;2022-09-16T05:54:53;14.90;75.10
32626;DHT22;19038;50.922;11.880;2022-09-16T05:59:53;14.90;74.80
32626;DHT22;19038;50.922;11.880;2022-09-16T06:04:53;14.80;75.20
32626;DHT22;19038;50.922;11.880;2022-09-16T06:09:53;14.80;75.80
32626;DHT22;19038;50.922;11.880;2022-09-16T06:14:53;14.80;75.90
32626;DHT22;19038;50.922;11.880;2022-09-16T06:19:53;14.90;76.20
32626;DHT22;19038;50.922;11.880;2022-09-16T06:24:53;14.90;75.80
32626;DHT22;19038;50.922;11.880;2022-09-16T06:29:53;14.90;76.00
32626;DHT22;19038;50.922;11.880;2022-09-16T06:34:53;14.90;76.00
32626;DHT22;19038;50.922;11.880;2022-09-16T06:39:53;14.90;76.60
32626;DHT22;19038;50.922;11.880;2022-09-16T06:44:53;15.10;76.00
32626;DHT22;19038;50.922;11.880;2022-09-16T06:49:53;15.10;76.20
32626;DHT22;19038;50.922;11.880;2022-09-16T06:54:53;15.00;76.10
32626;DHT22;19038;50.922;11.880;2022-09-16T06:59:53;15.10;76.10
32626;DHT22;19038;50.922;11.880;2022-09-16T07:04:53;15.10;76.20
32626;DHT22;19038;50.922;11.880;2022-09-16T07:09:53;15.10;76.50
32626;DHT22;19038;50.922;11.880;2022-09-16T07:14:53;15.10;76.30
32626;DHT22;19038;50.922;11.880;2022-09-16T07:19:53;15.20;76.20
32626;DHT22;19038;50.922;11.880;2022-09-16T07:24:53;15.20;75.90
32626;DHT22;19038;50.922;11.880;2022-09-16T07:29:53;15.20;76.00
32626;DHT22;19038;50.922;11.880;2022-09-16T07:34:53;15.20;75.00
32626;DHT22;19038;50.922;11.880;2022-09-16T07:39:53;15.20;75.20
32626;DHT22;19038;50.922;11.880;2022-09-16T07:44:53;15.20;74.90
32626;DHT22;19038;50.922;11.880;2022-09-16T07:49:53;15.30;75.90
32626;DHT22;19038;50.922;11.880;2022-09-16T07:54:54;15.40;73.60
32626;DHT22;19038;50.922;11.880;2022-09-16T07:59:53;15.40;73.50
32626;DHT22;19038;50.922;11.880;2022-09-16T08:04:53;15.40;72.40
32626;DHT22;19038;50.922;11.880;2022-09-16T08:09:53;15.50;73.70
32626;DHT22;19038;50.922;11.880;2022-09-16T08:14:53;15.50;73.60
32626;DHT22;19038;50.922;11.880;2022-09-16T08:19:53;15.60;71.80
32626;DHT22;19038;50.922;11.880;2022-09-16T08:24:53;15.60;70.60
32626;DHT22;19038;50.922;11.880;2022-09-16T08:29:53;15.50;71.20
32626;DHT22;19038;50.922;11.880;2022-09-16T08:34:53;15.40;70.70
32626;DHT22;19038;50.922;11.880;2022-09-16T08:39:53;15.40;71.60
32626;DHT22;19038;50.922;11.880;2022-09-16T08:44:59;15.50;72.20
32626;DHT22;19038;50.922;11.880;2022-09-16T08:49:53;15.70;71.00
32626;DHT22;19038;50.922;11.880;2022-09-16T08:54:55;15.80;70.30
32626;DHT22;19038;50.922;11.880;2022-09-16T08:59:56;15.90;70.10
32626;DHT22;19038;50.922;11.880;2022-09-16T09:04:53;16.00;70.50
32626;DHT22;19038;50.922;11.880;2022-09-16T09:19:58;16.40;68.60
32626;DHT22;19038;50.922;11.880;2022-09-16T09:24:58;16.40;66.70
32626;DHT22;19038;50.922;11.880;2022-09-16T09:29:59;16.40;67.90
32626;DHT22;19038;50.922;11.880;2022-09-16T09:39:59;16.50;67.10
32626;DHT22;19038;50.922;11.880;2022-09-16T09:44:59;16.60;65.40
32626;DHT22;19038;50.922;11.880;2022-09-16T09:50:00;16.60;65.90
32626;DHT22;19038;50.922;11.880;2022-09-16T09:54:53;16.60;64.70
32626;DHT22;19038;50.922;11.880;2022-09-16T10:04:53;16.70;64.40
32626;DHT22;19038;50.922;11.880;2022-09-16T10:09:56;16.60;64.40
32626;DHT22;19038;50.922;11.880;2022-09-16T10:14:53;16.60;65.20
32626;DHT22;19038;50.922;11.880;2022-09-16T10:24:54;16.90;65.10
32626;DHT22;19038;50.922;11.880;2022-09-16T10:34:54;16.70;71.20
32626;DHT22;19038;50.922;11.880;2022-09-16T10:39:54;16.50;71.00
32626;DHT22;19038;50.922;11.880;2022-09-16T10:44:54;16.50;73.40
32626;DHT22;19038;50.922;11.880;2022-09-16T10:49:55;16.50;75.70
32626;DHT22;19038;50.922;11.880;2022-09-16T10:54:53;16.60;78.30
32626;DHT22;19038;50.922;11.880;2022-09-16T10:59:55;16.60;75.00
32626;DHT22;19038;50.922;11.880;2022-09-16T11:04:56;16.70;75.00
32626;DHT22;19038;50.922;11.880;2022-09-16T11:15:00;16.90;75.50
32626;DHT22;19038;50.922;11.880;2022-09-16T11:30:00;17.00;71.10
32626;DHT22;19038;50.922;11.880;2022-09-16T11:34:58;17.00;69.10
32626;DHT22;19038;50.922;11.880;2022-09-16T11:39:57;16.90;70.10
32626;DHT22;19038;50.922;11.880;2022-09-16T11:45:01;17.20;69.90
32626;DHT22;19038;50.922;11.880;2022-09-16T11:59:55;17.40;71.40
32626;DHT22;19038;50.922;11.880;2022-09-16T12:05:00;17.60;71.00
32626;DHT22;19038;50.922;11.880;2022-09-16T12:14:55;17.40;69.30
32626;DHT22;19038;50.922;11.880;2022-09-16T12:19:59;17.40;68.50
32626;DHT22;19038;50.922;11.880;2022-09-16T12:24:59;17.40;69.10
32626;DHT22;19038;50.922;11.880;2022-09-16T12:29:54;17.50;68.60
32626;DHT22;19038;50.922;11.880;2022-09-16T12:34:55;17.50;66.30
32626;DHT22;19038;50.922;11.880;2022-09-16T12:39:53;17.40;63.60
32626;DHT22;19038;50.922;11.880;2022-09-16T13:04:54;17.00;66.50
32626;DHT22;19038;50.922;11.880;2022-09-16T13:14:54;16.80;66.30
32626;DHT22;19038;50.922;11.880;2022-09-16T13:19:53;16.90;65.20
32626;DHT22;19038;50.922;11.880;2022-09-16T13:25:00;17.00;64.90
32626;DHT22;19038;50.922;11.880;2022-09-16T13:39:53;17.20;64.00
32626;DHT22;19038;50.922;11.880;2022-09-16T13:44:54;17.20;63.20
32626;DHT22;19038;50.922;11.880;2022-09-16T13:49:56;17.30;63.40
32626;DHT22;19038;50.922;11.880;2022-09-16T13:54:54;17.30;64.20
32626;DHT22;19038;50.922;11.880;2022-09-16T14:09:58;17.30;65.90
32626;DHT22;19038;50.922;11.880;2022-09-16T14:14:56;17.40;66.00
32626;DHT22;19038;50.922;11.880;2022-09-16T14:19:56;17.40;64.70
32626;DHT22;19038;50.922;11.880;2022-09-16T14:24:54;17.40;62.90
32626;DHT22;19038;50.922;11.880;2022-09-16T14:29:56;17.40;62.60
32626;DHT22;19038;50.922;11.880;2022-09-16T14:34:54;17.40;61.60
32626;DHT22;19038;50.922;11.880;2022-09-16T14:39:54;17.30;62.30
32626;DHT22;19038;50.922;11.880;2022-09-16T14:44:53;17.40;60.10
32626;DHT22;19038;50.922;11.880;2022-09-16T14:49:55;17.30;61.20
32626;DHT22;19038;50.922;11.880;2022-09-16T14:54:55;17.30;60.40
32626;DHT22;19038;50.922;11.880;2022-09-16T14:59:57;17.20;59.00
32626;DHT22;19038;50.922;11.880;2022-09-16T15:04:56;17.10;59.50
32626;DHT22;19038;50.922;11.880;2022-09-16T15:09:56;17.10;60.10
32626;DHT22;19038;50.922;11.880;2022-09-16T15:14:53;17.00;60.90
32626;DHT22;19038;50.922;11.880;2022-09-16T15:19:55;16.90;62.50
32626;DHT22;19038;50.922;11.880;2022-09-16T15:24:55;17.10;62.70
32626;DHT22;19038;50.922;11.880;2022-09-16T15:29:55;17.10;63.00
32626;DHT22;19038;50.922;11.880;2022-09-16T15:39:53;17.30;64.00
32626;DHT22;19038;50.922;11.880;2022-09-16T15:44:55;17.30;65.00
32626;DHT22;19038;50.922;11.880;2022-09-16T15:49:58;17.30;64.00
32626;DHT22;19038;50.922;11.880;2022-09-16T15:54:55;17.30;63.90
32626;DHT22;19038;50.922;11.880;2022-09-16T16:05:01;17.30;64.30
32626;DHT22;19038;50.922;11.880;2022-09-16T16:09:53;17.30;63.60
32626;DHT22;19038;50.922;11.880;2022-09-16T16:14:53;17.30;64.10
32626;DHT22;19038;50.922;11.880;2022-09-16T16:19:53;17.10;64.00
32626;DHT22;19038;50.922;11.880;2022-09-16T16:24:53;17.20;63.50
32626;DHT22;19038;50.922;11.880;2022-09-16T16:29:53;17.10;62.80
32626;DHT22;19038;50.922;11.880;2022-09-16T16:34:53;17.00;61.60
32626;DHT22;19038;50.922;11.880;2022-09-16T16:39:54;17.00;62.30
32626;DHT22;19038;50.922;11.880;2022-09-16T16:44:54;17.00;62.50
32626;DHT22;19038;50.922;11.880;2022-09-16T16:49:53;17.00;63.60
32626;DHT22;19038;50.922;11.880;2022-09-16T16:54:54;17.00;64.40
32626;DHT22;19038;50.922;11.880;2022-09-16T16:59:53;17.00;64.30
32626;DHT22;19038;50.922;11.880;2022-09-16T17:04:53;17.00;64.50
32626;DHT22;19038;50.922;11.880;2022-09-16T17:09:54;16.90;64.20
32626;DHT22;19038;50.922;11.880;2022-09-16T17:14:54;16.80;64.80
32626;DHT22;19038;50.922;11.880;2022-09-16T17:19:54;16.80;64.60
32626;DHT22;19038;50.922;11.880;2022-09-16T17:24:54;16.70;65.00
32626;DHT22;19038;50.922;11.880;2022-09-16T17:29:54;16.70;66.00
32626;DHT22;19038;50.922;11.880;2022-09-16T17:34:54;16.60;64.80
32626;DHT22;19038;50.922;11.880;2022-09-16T17:39:54;16.60;65.80
32626;DHT22;19038;50.922;11.880;2022-09-16T17:44:53;16.60;66.20
32626;DHT22;19038;50.922;11.880;2022-09-16T17:49:54;16.50;66.10
32626;DHT22;19038;50.922;11.880;2022-09-16T17:54:54;16.50;66.10
32626;DHT22;19038;50.922;11.880;2022-09-16T17:59:53;16.00;65.40
32626;DHT22;19038;50.922;11.880;2022-09-16T18:04:54;16.40;66.20
32626;DHT22;19038;50.922;11.880;2022-09-16T18:09:54;16.30;66.50
32626;DHT22;19038;50.922;11.880;2022-09-16T18:14:54;16.30;66.70
32626;DHT22;19038;50.922;11.880;2022-09-16T18:19:54;16.30;66.70
32626;DHT22;19038;50.922;11.880;2022-09-16T18:24:54;16.20;66.80
32626;DHT22;19038;50.922;11.880;2022-09-16T18:29:54;16.20;66.50
32626;DHT22;19038;50.922;11.880;2022-09-16T18:34:54;16.10;66.40
32626;DHT22;19038;50.922;11.880;2022-09-16T18:39:54;16.00;66.10
32626;DHT22;19038;50.922;11.880;2022-09-16T18:44:54;16.00;66.30
32626;DHT22;19038;50.922;11.880;2022-09-16T18:49:54;16.00;66.20
32626;DHT22;19038;50.922;11.880;2022-09-16T18:54:54;15.90;65.20
32626;DHT22;19038;50.922;11.880;2022-09-16T18:59:54;15.80;65.10
32626;DHT22;19038;50.922;11.880;2022-09-16T19:04:54;15.80;66.00
32626;DHT22;19038;50.922;11.880;2022-09-16T19:09:54;15.70;65.20
32626;DHT22;19038;50.922;11.880;2022-09-16T19:14:54;15.70;64.70
32626;DHT22;19038;50.922;11.880;2022-09-16T19:19:54;15.60;64.60
32626;DHT22;19038;50.922;11.880;2022-09-16T19:24:54;15.50;64.70
32626;DHT22;19038;50.922;11.880;2022-09-16T19:29:54;15.50;65.10
32626;DHT22;19038;50.922;11.880;2022-09-16T19:34:54;15.40;64.70
32626;DHT22;19038;50.922;11.880;2022-09-16T19:39:54;15.40;64.80
32626;DHT22;19038;50.922;11.880;2022-09-16T19:44:54;15.40;64.80
32626;DHT22;19038;50.922;11.880;2022-09-16T19:49:54;15.30;64.60
32626;DHT22;19038;50.922;11.880;2022-09-16T19:54:54;15.10;63.90
32626;DHT22;19038;50.922;11.880;2022-09-16T19:59:54;15.10;64.80
32626;DHT22;19038;50.922;11.880;2022-09-16T20:04:54;15.10;65.30
32626;DHT22;19038;50.922;11.880;2022-09-16T20:09:54;15.00;64.50
32626;DHT22;19038;50.922;11.880;2022-09-16T20:14:54;14.90;64.60
32626;DHT22;19038;50.922;11.880;2022-09-16T20:19:54;14.80;65.20
32626;DHT22;19038;50.922;11.880;2022-09-16T20:24:54;14.80;65.10
32626;DHT22;19038;50.922;11.880;2022-09-16T20:29:54;14.80;65.40
32626;DHT22;19038;50.922;11.880;2022-09-16T20:34:54;14.70;65.40
32626;DHT22;19038;50.922;11.880;2022-09-16T20:39:54;14.70;65.90
32626;DHT22;19038;50.922;11.880;2022-09-16T20:44:54;14.60;65.10
32626;DHT22;19038;50.922;11.880;2022-09-16T20:49:54;14.50;65.50
32626;DHT22;19038;50.922;11.880;2022-09-16T20:54:54;14.50;65.00
32626;DHT22;19038;50.922;11.880;2022-09-16T20:59:54;14.50;65.50
32626;DHT22;19038;50.922;11.880;2022-09-16T21:04:54;14.40;65.20
32626;DHT22;19038;50.922;11.880;2022-09-16T21:09:54;14.30;65.00
32626;DHT22;19038;50.922;11.880;2022-09-16T21:14:54;14.20;65.10
32626;DHT22;19038;50.922;11.880;2022-09-16T21:19:54;14.10;65.40
32626;DHT22;19038;50.922;11.880;2022-09-16T21:24:54;14.10;65.20
32626;DHT22;19038;50.922;11.880;2022-09-16T21:29:54;14.10;65.40
32626;DHT22;19038;50.922;11.880;2022-09-16T21:34:55;14.00;65.60
32626;DHT22;19038;50.922;11.880;2022-09-16T21:39:54;14.00;65.60
32626;DHT22;19038;50.922;11.880;2022-09-16T21:44:54;14.00;65.20
32626;DHT22;19038;50.922;11.880;2022-09-16T21:49:54;13.90;65.70
32626;DHT22;19038;50.922;11.880;2022-09-16T21:54:54;13.90;65.80
32626;DHT22;19038;50.922;11.880;2022-09-16T21:59:54;13.80;65.70
32626;DHT22;19038;50.922;11.880;2022-09-16T22:04:54;13.80;66.10
32626;DHT22;19038;50.922;11.880;2022-09-16T22:09:54;13.60;66.40
32626;DHT22;19038;50.922;11.880;2022-09-16T22:14:55;13.60;66.40
32626;DHT22;19038;50.922;11.880;2022-09-16T22:19:54;13.60;66.70
32626;DHT22;19038;50.922;11.880;2022-09-16T22:24:54;13.60;66.80
32626;DHT22;19038;50.922;11.880;2022-09-16T22:29:54;13.60;67.30
32626;DHT22;19038;50.922;11.880;2022-09-16T22:34:54;13.50;67.40
32626;DHT22;19038;50.922;11.880;2022-09-16T22:39:54;13.50;67.20
32626;DHT22;19038;50.922;11.880;2022-09-16T22:44:54;13.50;67.70
32626;DHT22;19038;50.922;11.880;2022-09-16T22:49:54;13.50;68.00
32626;DHT22;19038;50.922;11.880;2022-09-16T22:54:54;13.50;67.30
32626;DHT22;19038;50.922;11.880;2022-09-16T22:59:54;13.50;67.10
32626;DHT22;19038;50.922;11.880;2022-09-16T23:04:55;13.40;67.70
32626;DHT22;19038;50.922;11.880;2022-09-16T23:09:54;13.50;68.00
32626;DHT22;19038;50.922;11.880;2022-09-16T23:14:54;13.50;67.60
32626;DHT22;19038;50.922;11.880;2022-09-16T23:19:54;13.40;67.90
32626;DHT22;19038;50.922;11.880;2022-09-16T23:24:55;13.50;67.60
32626;DHT22;19038;50.922;11.880;2022-09-16T23:29:54;13.40;68.30
32626;DHT22;19038;50.922;11.880;2022-09-16T23:34:54;13.40;68.60
32626;DHT22;19038;50.922;11.880;2022-09-16T23:39:54;13.40;68.00
32626;DHT22;19038;50.922;11.880;2022-09-16T23:44:54;13.40;68.60
32626;DHT22;19038;50.922;11.880;2022-09-16T23:49:54;13.50;68.30
32626;DHT22;19038;50.922;11.880;2022-09-16T23:54:54;13.50;68.20
32626;DHT22;19038;50.922;11.880;2022-09-16T23:59:54;13.40;68.80
